sensor_id;sensor_type;location;lat;lon;timestamp;pressure;altitude;pressure_sealevel;temperature;humidity
48530;BME280;34927;37.302;-121.982;2023-04-08T00:00:02;100921.0;;;24.51;33.56
48530;BME280;34927;37.302;-121.982;2023-04-08T00:01:06;100921.0;;;24.59;33.44
48530;BME280;34927;37.302;-121.982;2023-04-08T00:02:11;100924.0;;;24.53;33.73
48530;BME280;34927;37.302;-121.982;2023-04-08T00:03:17;100929.0;;;24.58;33.46
48530;BME280;34927;37.302;-121.982;2023-04-08T00:04:21;100928.0;;;24.55;33.81
48530;BME280;34927;37.302;-121.982;2023-04-08T00:05:26;100932.0;;;24.46;33.61
48530;BME280;34927;37.302;-121.982;2023-04-08T00:06:31;100933.0;;;24.51;33.69
48530;BME280;34927;37.302;-121.982;2023-04-08T00:07:36;100934.0;;;24.52;33.51
48530;BME280;34927;37.302;-121.982;2023-04-08T00:08:41;100933.0;;;24.52;33.64
48530;BME280;34927;37.302;-121.982;2023-04-08T00:09:46;100935.0;;;24.44;33.67
48530;BME280;34927;37.302;-121.982;2023-04-08T00:10:51;100936.0;;;24.41;33.93
48530;BME280;34927;37.302;-121.982;2023-04-08T00:11:57;100939.0;;;24.43;33.66
48530;BME280;34927;37.302;-121.982;2023-04-08T00:13:02;100938.0;;;24.39;33.75
48530;BME280;34927;37.302;-121.982;2023-04-08T00:14:06;100940.0;;;24.48;33.69
48530;BME280;34927;37.302;-121.982;2023-04-08T00:15:11;100942.0;;;24.49;33.48
48530;BME280;34927;37.302;-121.982;2023-04-08T00:16:16;100941.0;;;24.42;33.77
48530;BME280;34927;37.302;-121.982;2023-04-08T00:17:22;100946.0;;;24.44;33.70
48530;BME280;34927;37.302;-121.982;2023-04-08T00:18:26;100946.0;;;24.54;33.59
48530;BME280;34927;37.302;-121.982;2023-04-08T00:19:32;100942.0;;;24.56;33.39
48530;BME280;34927;37.302;-121.982;2023-04-08T00:20:37;100941.0;;;24.48;33.54
48530;BME280;34927;37.302;-121.982;2023-04-08T00:21:42;100939.0;;;24.32;33.89
48530;BME280;34927;37.302;-121.982;2023-04-08T00:22:47;100938.0;;;24.39;33.59
48530;BME280;34927;37.302;-121.982;2023-04-08T00:23:52;100939.0;;;24.50;33.52
48530;BME280;34927;37.302;-121.982;2023-04-08T00:24:57;100934.0;;;24.45;33.54
48530;BME280;34927;37.302;-121.982;2023-04-08T00:26:02;100933.0;;;24.41;33.60
48530;BME280;34927;37.302;-121.982;2023-04-08T00:27:07;100937.0;;;24.50;33.55
48530;BME280;34927;37.302;-121.982;2023-04-08T00:28:12;100940.0;;;24.45;33.60
48530;BME280;34927;37.302;-121.982;2023-04-08T00:29:16;100943.0;;;24.48;33.45
48530;BME280;34927;37.302;-121.982;2023-04-08T00:30:22;100943.0;;;24.36;33.67
48530;BME280;34927;37.302;-121.982;2023-04-08T00:31:27;100946.0;;;24.46;33.69
48530;BME280;34927;37.302;-121.982;2023-04-08T00:32:32;100946.0;;;24.57;33.26
48530;BME280;34927;37.302;-121.982;2023-04-08T00:33:37;100945.0;;;24.34;33.47
48530;BME280;34927;37.302;-121.982;2023-04-08T00:34:41;100945.0;;;24.20;33.60
48530;BME280;34927;37.302;-121.982;2023-04-08T00:35:47;100945.0;;;24.39;33.31
48530;BME280;34927;37.302;-121.982;2023-04-08T00:36:51;100940.0;;;24.32;33.36
48530;BME280;34927;37.302;-121.982;2023-04-08T00:37:56;100938.0;;;24.20;33.54
48530;BME280;34927;37.302;-121.982;2023-04-08T00:39:02;100937.0;;;24.07;33.73
48530;BME280;34927;37.302;-121.982;2023-04-08T00:40:07;100937.0;;;24.15;33.55
48530;BME280;34927;37.302;-121.982;2023-04-08T00:41:12;100937.0;;;24.20;33.46
48530;BME280;34927;37.302;-121.982;2023-04-08T00:42:16;100937.0;;;24.06;33.65
48530;BME280;34927;37.302;-121.982;2023-04-08T00:43:22;100936.0;;;24.14;33.58
48530;BME280;34927;37.302;-121.982;2023-04-08T00:44:26;100939.0;;;24.07;33.62
48530;BME280;34927;37.302;-121.982;2023-04-08T00:45:32;100937.0;;;24.11;33.56
48530;BME280;34927;37.302;-121.982;2023-04-08T00:46:38;100936.0;;;24.10;33.54
48530;BME280;34927;37.302;-121.982;2023-04-08T00:47:42;100938.0;;;24.07;33.58
48530;BME280;34927;37.302;-121.982;2023-04-08T00:48:47;100940.0;;;23.99;33.76
48530;BME280;34927;37.302;-121.982;2023-04-08T00:49:51;100938.0;;;23.86;33.91
48530;BME280;34927;37.302;-121.982;2023-04-08T00:50:57;100941.0;;;23.82;33.93
48530;BME280;34927;37.302;-121.982;2023-04-08T00:52:01;100939.0;;;23.93;33.72
48530;BME280;34927;37.302;-121.982;2023-04-08T00:53:06;100936.0;;;23.97;33.67
48530;BME280;34927;37.302;-121.982;2023-04-08T00:54:12;100940.0;;;23.92;33.69
48530;BME280;34927;37.302;-121.982;2023-04-08T00:55:16;100937.0;;;23.94;33.65
48530;BME280;34927;37.302;-121.982;2023-04-08T00:56:22;100938.0;;;24.06;33.50
48530;BME280;34927;37.302;-121.982;2023-04-08T00:57:27;100938.0;;;23.87;34.10
48530;BME280;34927;37.302;-121.982;2023-04-08T00:58:32;100940.0;;;23.94;34.53
48530;BME280;34927;37.302;-121.982;2023-04-08T00:59:37;100936.0;;;23.95;34.68
48530;BME280;34927;37.302;-121.982;2023-04-08T01:00:46;100931.0;;;24.01;34.50
48530;BME280;34927;37.302;-121.982;2023-04-08T01:01:58;100929.0;;;23.95;34.67
48530;BME280;34927;37.302;-121.982;2023-04-08T01:03:12;100928.0;;;24.04;34.52
48530;BME280;34927;37.302;-121.982;2023-04-08T01:04:25;100929.0;;;24.03;34.61
48530;BME280;34927;37.302;-121.982;2023-04-08T01:05:39;100931.0;;;24.19;34.36
48530;BME280;34927;37.302;-121.982;2023-04-08T01:06:53;100932.0;;;24.08;34.53
48530;BME280;34927;37.302;-121.982;2023-04-08T01:08:05;100939.0;;;24.21;34.12
48530;BME280;34927;37.302;-121.982;2023-04-08T01:09:13;100941.0;;;24.16;34.18
48530;BME280;34927;37.302;-121.982;2023-04-08T01:10:24;100943.0;;;24.22;34.18
48530;BME280;34927;37.302;-121.982;2023-04-08T01:11:32;100944.0;;;24.24;33.99
48530;BME280;34927;37.302;-121.982;2023-04-08T01:12:42;100946.0;;;24.27;33.88
48530;BME280;34927;37.302;-121.982;2023-04-08T01:13:48;100945.0;;;24.14;34.20
48530;BME280;34927;37.302;-121.982;2023-04-08T01:15:00;100944.0;;;24.19;33.99
48530;BME280;34927;37.302;-121.982;2023-04-08T01:16:11;100939.0;;;24.19;33.82
48530;BME280;34927;37.302;-121.982;2023-04-08T01:17:17;100935.0;;;24.36;33.60
48530;BME280;34927;37.302;-121.982;2023-04-08T01:18:22;100933.0;;;24.63;33.10
48530;BME280;34927;37.302;-121.982;2023-04-08T01:19:30;100933.0;;;24.89;32.70
48530;BME280;34927;37.302;-121.982;2023-04-08T01:20:37;100929.0;;;24.98;32.43
48530;BME280;34927;37.302;-121.982;2023-04-08T01:21:42;100931.0;;;24.99;32.44
48530;BME280;34927;37.302;-121.982;2023-04-08T01:22:57;100933.0;;;24.94;32.64
48530;BME280;34927;37.302;-121.982;2023-04-08T01:24:12;100938.0;;;24.83;32.92
48530;BME280;34927;37.302;-121.982;2023-04-08T01:25:26;100940.0;;;24.86;33.01
48530;BME280;34927;37.302;-121.982;2023-04-08T01:26:32;100945.0;;;24.86;32.89
48530;BME280;34927;37.302;-121.982;2023-04-08T01:27:37;100946.0;;;24.72;33.24
48530;BME280;34927;37.302;-121.982;2023-04-08T01:28:42;100949.0;;;24.63;33.43
48530;BME280;34927;37.302;-121.982;2023-04-08T01:29:47;100950.0;;;24.69;33.24
48530;BME280;34927;37.302;-121.982;2023-04-08T01:30:53;100950.0;;;24.66;33.39
48530;BME280;34927;37.302;-121.982;2023-04-08T01:31:58;100953.0;;;24.69;33.37
48530;BME280;34927;37.302;-121.982;2023-04-08T01:33:03;100955.0;;;24.76;33.14
48530;BME280;34927;37.302;-121.982;2023-04-08T01:34:07;100956.0;;;24.74;33.18
48530;BME280;34927;37.302;-121.982;2023-04-08T01:35:12;100959.0;;;24.67;33.38
48530;BME280;34927;37.302;-121.982;2023-04-08T01:36:19;100959.0;;;24.62;33.36
48530;BME280;34927;37.302;-121.982;2023-04-08T01:37:27;100959.0;;;24.42;33.64
48530;BME280;34927;37.302;-121.982;2023-04-08T01:38:33;100957.0;;;24.45;33.88
48530;BME280;34927;37.302;-121.982;2023-04-08T01:39:38;100956.0;;;24.38;33.99
48530;BME280;34927;37.302;-121.982;2023-04-08T01:40:47;100956.0;;;24.43;33.91
48530;BME280;34927;37.302;-121.982;2023-04-08T01:41:54;100958.0;;;24.41;33.86
48530;BME280;34927;37.302;-121.982;2023-04-08T01:42:57;100961.0;;;24.43;33.97
48530;BME280;34927;37.302;-121.982;2023-04-08T01:44:02;100963.0;;;24.45;34.00
48530;BME280;34927;37.302;-121.982;2023-04-08T01:45:09;100965.0;;;24.44;34.17
48530;BME280;34927;37.302;-121.982;2023-04-08T01:46:13;100966.0;;;24.33;34.43
48530;BME280;34927;37.302;-121.982;2023-04-08T01:47:17;100967.0;;;24.38;34.33
48530;BME280;34927;37.302;-121.982;2023-04-08T01:48:22;100971.0;;;24.47;34.18
48530;BME280;34927;37.302;-121.982;2023-04-08T01:49:26;100971.0;;;24.47;34.29
48530;BME280;34927;37.302;-121.982;2023-04-08T01:50:32;100970.0;;;24.47;34.15
48530;BME280;34927;37.302;-121.982;2023-04-08T01:51:38;100974.0;;;24.56;33.97
48530;BME280;34927;37.302;-121.982;2023-04-08T01:52:43;100969.0;;;24.34;34.52
48530;BME280;34927;37.302;-121.982;2023-04-08T01:53:47;100972.0;;;24.05;35.03
48530;BME280;34927;37.302;-121.982;2023-04-08T01:54:52;100970.0;;;24.21;34.79
48530;BME280;34927;37.302;-121.982;2023-04-08T01:56:02;100974.0;;;24.14;34.89
48530;BME280;34927;37.302;-121.982;2023-04-08T01:57:15;100972.0;;;24.03;35.34
48530;BME280;34927;37.302;-121.982;2023-04-08T01:58:22;100973.0;;;24.14;35.05
48530;BME280;34927;37.302;-121.982;2023-04-08T01:59:30;100973.0;;;24.09;35.04
48530;BME280;34927;37.302;-121.982;2023-04-08T02:00:38;100975.0;;;24.13;35.07
48530;BME280;34927;37.302;-121.982;2023-04-08T02:01:43;100973.0;;;24.09;35.32
48530;BME280;34927;37.302;-121.982;2023-04-08T02:02:48;100974.0;;;24.10;35.01
48530;BME280;34927;37.302;-121.982;2023-04-08T02:03:53;100972.0;;;24.12;35.10
48530;BME280;34927;37.302;-121.982;2023-04-08T02:04:57;100971.0;;;24.08;35.26
48530;BME280;34927;37.302;-121.982;2023-04-08T02:06:01;100975.0;;;24.11;35.43
48530;BME280;34927;37.302;-121.982;2023-04-08T02:07:07;100975.0;;;24.00;35.57
48530;BME280;34927;37.302;-121.982;2023-04-08T02:08:11;100977.0;;;24.09;35.20
48530;BME280;34927;37.302;-121.982;2023-04-08T02:09:16;100978.0;;;24.14;35.05
48530;BME280;34927;37.302;-121.982;2023-04-08T02:10:21;100982.0;;;24.07;35.13
48530;BME280;34927;37.302;-121.982;2023-04-08T02:11:28;100978.0;;;23.95;35.27
48530;BME280;34927;37.302;-121.982;2023-04-08T02:12:33;100980.0;;;23.77;35.53
48530;BME280;34927;37.302;-121.982;2023-04-08T02:13:37;100984.0;;;23.84;35.55
48530;BME280;34927;37.302;-121.982;2023-04-08T02:14:41;100985.0;;;23.57;35.90
48530;BME280;34927;37.302;-121.982;2023-04-08T02:15:51;100980.0;;;23.70;35.65
48530;BME280;34927;37.302;-121.982;2023-04-08T02:17:08;100978.0;;;23.77;35.42
48530;BME280;34927;37.302;-121.982;2023-04-08T02:18:15;100977.0;;;23.77;35.44
48530;BME280;34927;37.302;-121.982;2023-04-08T02:19:27;100976.0;;;23.69;35.34
48530;BME280;34927;37.302;-121.982;2023-04-08T02:20:36;100976.0;;;23.81;35.11
48530;BME280;34927;37.302;-121.982;2023-04-08T02:21:47;100975.0;;;23.62;35.31
48530;BME280;34927;37.302;-121.982;2023-04-08T02:22:59;100974.0;;;23.77;35.01
48530;BME280;34927;37.302;-121.982;2023-04-08T02:24:09;100975.0;;;23.76;34.99
48530;BME280;34927;37.302;-121.982;2023-04-08T02:25:19;100974.0;;;23.73;35.01
48530;BME280;34927;37.302;-121.982;2023-04-08T02:26:26;100972.0;;;23.64;35.17
48530;BME280;34927;37.302;-121.982;2023-04-08T02:27:34;100969.0;;;23.64;35.11
48530;BME280;34927;37.302;-121.982;2023-04-08T02:28:37;100966.0;;;23.68;35.01
48530;BME280;34927;37.302;-121.982;2023-04-08T02:29:43;100964.0;;;23.55;35.21
48530;BME280;34927;37.302;-121.982;2023-04-08T02:30:49;100964.0;;;23.55;35.23
48530;BME280;34927;37.302;-121.982;2023-04-08T02:31:52;100961.0;;;23.59;35.12
48530;BME280;34927;37.302;-121.982;2023-04-08T02:32:57;100963.0;;;23.62;35.11
48530;BME280;34927;37.302;-121.982;2023-04-08T02:34:02;100963.0;;;23.54;35.17
48530;BME280;34927;37.302;-121.982;2023-04-08T02:35:07;100965.0;;;23.48;35.30
48530;BME280;34927;37.302;-121.982;2023-04-08T02:36:12;100968.0;;;23.48;35.31
48530;BME280;34927;37.302;-121.982;2023-04-08T02:37:16;100971.0;;;23.48;35.40
48530;BME280;34927;37.302;-121.982;2023-04-08T02:38:21;100970.0;;;23.45;35.71
48530;BME280;34927;37.302;-121.982;2023-04-08T02:39:31;100970.0;;;23.36;35.89
48530;BME280;34927;37.302;-121.982;2023-04-08T02:40:37;100974.0;;;23.42;35.72
48530;BME280;34927;37.302;-121.982;2023-04-08T02:41:41;100973.0;;;23.38;35.77
48530;BME280;34927;37.302;-121.982;2023-04-08T02:42:46;100976.0;;;23.27;36.10
48530;BME280;34927;37.302;-121.982;2023-04-08T02:43:51;100977.0;;;23.34;35.84
48530;BME280;34927;37.302;-121.982;2023-04-08T02:44:57;100978.0;;;23.21;36.04
48530;BME280;34927;37.302;-121.982;2023-04-08T02:46:01;100978.0;;;23.10;36.18
48530;BME280;34927;37.302;-121.982;2023-04-08T02:47:07;100982.0;;;23.16;36.09
48530;BME280;34927;37.302;-121.982;2023-04-08T02:48:11;100984.0;;;23.22;35.88
48530;BME280;34927;37.302;-121.982;2023-04-08T02:49:16;100985.0;;;23.15;35.99
48530;BME280;34927;37.302;-121.982;2023-04-08T02:50:21;100990.0;;;23.21;35.79
48530;BME280;34927;37.302;-121.982;2023-04-08T02:51:26;100988.0;;;23.30;35.63
48530;BME280;34927;37.302;-121.982;2023-04-08T02:52:31;100989.0;;;23.11;35.90
48530;BME280;34927;37.302;-121.982;2023-04-08T02:53:37;100993.0;;;23.17;35.73
48530;BME280;34927;37.302;-121.982;2023-04-08T02:54:41;100991.0;;;22.97;36.00
48530;BME280;34927;37.302;-121.982;2023-04-08T02:55:46;100988.0;;;23.06;35.88
48530;BME280;34927;37.302;-121.982;2023-04-08T02:56:52;100988.0;;;22.92;36.14
48530;BME280;34927;37.302;-121.982;2023-04-08T02:57:56;100987.0;;;23.00;35.99
48530;BME280;34927;37.302;-121.982;2023-04-08T02:59:02;100986.0;;;22.76;36.38
48530;BME280;34927;37.302;-121.982;2023-04-08T03:00:08;100987.0;;;22.89;36.17
48530;BME280;34927;37.302;-121.982;2023-04-08T03:01:12;100986.0;;;22.80;36.32
48530;BME280;34927;37.302;-121.982;2023-04-08T03:02:17;100987.0;;;22.78;36.36
48530;BME280;34927;37.302;-121.982;2023-04-08T03:03:22;100990.0;;;22.98;36.01
48530;BME280;34927;37.302;-121.982;2023-04-08T03:04:26;100991.0;;;23.14;35.65
48530;BME280;34927;37.302;-121.982;2023-04-08T03:05:32;100993.0;;;23.18;35.47
48530;BME280;34927;37.302;-121.982;2023-04-08T03:06:36;100994.0;;;23.17;35.50
48530;BME280;34927;37.302;-121.982;2023-04-08T03:07:42;100993.0;;;23.20;35.53
48530;BME280;34927;37.302;-121.982;2023-04-08T03:08:47;100996.0;;;23.25;35.50
48530;BME280;34927;37.302;-121.982;2023-04-08T03:09:52;100999.0;;;23.25;35.50
48530;BME280;34927;37.302;-121.982;2023-04-08T03:10:57;101001.0;;;23.25;35.47
48530;BME280;34927;37.302;-121.982;2023-04-08T03:12:01;101002.0;;;23.06;35.88
48530;BME280;34927;37.302;-121.982;2023-04-08T03:13:07;101005.0;;;23.01;35.97
48530;BME280;34927;37.302;-121.982;2023-04-08T03:14:12;101005.0;;;22.92;36.15
48530;BME280;34927;37.302;-121.982;2023-04-08T03:15:16;101008.0;;;22.92;36.18
48530;BME280;34927;37.302;-121.982;2023-04-08T03:16:22;101011.0;;;22.77;36.40
48530;BME280;34927;37.302;-121.982;2023-04-08T03:17:27;101014.0;;;22.89;36.20
48530;BME280;34927;37.302;-121.982;2023-04-08T03:18:32;101016.0;;;22.74;36.39
48530;BME280;34927;37.302;-121.982;2023-04-08T03:19:37;101016.0;;;22.94;35.96
48530;BME280;34927;37.302;-121.982;2023-04-08T03:20:41;101014.0;;;23.05;35.69
48530;BME280;34927;37.302;-121.982;2023-04-08T03:21:46;101014.0;;;23.04;35.67
48530;BME280;34927;37.302;-121.982;2023-04-08T03:22:52;101014.0;;;23.02;35.63
48530;BME280;34927;37.302;-121.982;2023-04-08T03:23:56;101017.0;;;23.09;35.57
48530;BME280;34927;37.302;-121.982;2023-04-08T03:25:02;101016.0;;;23.08;35.60
48530;BME280;34927;37.302;-121.982;2023-04-08T03:26:06;101017.0;;;23.00;35.70
48530;BME280;34927;37.302;-121.982;2023-04-08T03:27:12;101019.0;;;23.05;35.56
48530;BME280;34927;37.302;-121.982;2023-04-08T03:28:17;101016.0;;;23.15;35.35
48530;BME280;34927;37.302;-121.982;2023-04-08T03:29:22;101018.0;;;23.19;35.38
48530;BME280;34927;37.302;-121.982;2023-04-08T03:30:26;101018.0;;;22.86;35.97
48530;BME280;34927;37.302;-121.982;2023-04-08T03:31:31;101018.0;;;22.70;36.20
48530;BME280;34927;37.302;-121.982;2023-04-08T03:32:36;101016.0;;;22.64;36.30
48530;BME280;34927;37.302;-121.982;2023-04-08T03:33:48;101014.0;;;22.44;36.68
48530;BME280;34927;37.302;-121.982;2023-04-08T03:34:51;101014.0;;;22.47;36.62
48530;BME280;34927;37.302;-121.982;2023-04-08T03:35:56;101012.0;;;22.38;36.75
48530;BME280;34927;37.302;-121.982;2023-04-08T03:37:02;101014.0;;;22.43;36.64
48530;BME280;34927;37.302;-121.982;2023-04-08T03:38:06;101014.0;;;22.56;36.41
48530;BME280;34927;37.302;-121.982;2023-04-08T03:39:12;101017.0;;;22.56;36.33
48530;BME280;34927;37.302;-121.982;2023-04-08T03:40:17;101018.0;;;22.64;36.21
48530;BME280;34927;37.302;-121.982;2023-04-08T03:41:22;101018.0;;;22.48;36.49
48530;BME280;34927;37.302;-121.982;2023-04-08T03:42:27;101017.0;;;22.47;36.51
48530;BME280;34927;37.302;-121.982;2023-04-08T03:43:31;101016.0;;;22.53;36.38
48530;BME280;34927;37.302;-121.982;2023-04-08T03:44:36;101019.0;;;22.61;36.25
48530;BME280;34927;37.302;-121.982;2023-04-08T03:45:41;101022.0;;;22.61;36.18
48530;BME280;34927;37.302;-121.982;2023-04-08T03:46:47;101025.0;;;22.53;36.42
48530;BME280;34927;37.302;-121.982;2023-04-08T03:47:51;101027.0;;;22.64;36.28
48530;BME280;34927;37.302;-121.982;2023-04-08T03:48:57;101030.0;;;22.66;36.46
48530;BME280;34927;37.302;-121.982;2023-04-08T03:50:02;101033.0;;;22.89;36.32
48530;BME280;34927;37.302;-121.982;2023-04-08T03:51:07;101035.0;;;23.17;36.02
48530;BME280;34927;37.302;-121.982;2023-04-08T03:52:12;101037.0;;;23.40;35.62
48530;BME280;34927;37.302;-121.982;2023-04-08T03:53:16;101038.0;;;23.71;35.28
48530;BME280;34927;37.302;-121.982;2023-04-08T03:54:21;101038.0;;;23.82;35.15
48530;BME280;34927;37.302;-121.982;2023-04-08T03:55:26;101044.0;;;23.87;34.82
48530;BME280;34927;37.302;-121.982;2023-04-08T03:56:32;101044.0;;;23.88;34.97
48530;BME280;34927;37.302;-121.982;2023-04-08T03:57:37;101045.0;;;23.94;35.04
48530;BME280;34927;37.302;-121.982;2023-04-08T03:58:41;101048.0;;;23.87;35.10
48530;BME280;34927;37.302;-121.982;2023-04-08T03:59:47;101052.0;;;23.84;35.32
48530;BME280;34927;37.302;-121.982;2023-04-08T04:00:52;101056.0;;;23.83;35.24
48530;BME280;34927;37.302;-121.982;2023-04-08T04:01:57;101057.0;;;23.57;35.86
48530;BME280;34927;37.302;-121.982;2023-04-08T04:03:02;101058.0;;;23.60;35.71
48530;BME280;34927;37.302;-121.982;2023-04-08T04:04:07;101057.0;;;23.42;36.05
48530;BME280;34927;37.302;-121.982;2023-04-08T04:05:11;101058.0;;;23.34;36.37
48530;BME280;34927;37.302;-121.982;2023-04-08T04:06:16;101062.0;;;23.16;36.70
48530;BME280;34927;37.302;-121.982;2023-04-08T04:07:21;101062.0;;;23.10;36.71
48530;BME280;34927;37.302;-121.982;2023-04-08T04:08:26;101068.0;;;23.05;36.98
48530;BME280;34927;37.302;-121.982;2023-04-08T04:09:31;101074.0;;;22.93;37.15
48530;BME280;34927;37.302;-121.982;2023-04-08T04:10:36;101076.0;;;23.01;37.22
48530;BME280;34927;37.302;-121.982;2023-04-08T04:11:42;101076.0;;;23.04;37.06
48530;BME280;34927;37.302;-121.982;2023-04-08T04:12:48;101082.0;;;23.05;37.02
48530;BME280;34927;37.302;-121.982;2023-04-08T04:13:52;101079.0;;;23.14;36.65
48530;BME280;34927;37.302;-121.982;2023-04-08T04:14:56;101081.0;;;23.16;36.38
48530;BME280;34927;37.302;-121.982;2023-04-08T04:16:02;101084.0;;;23.08;36.43
48530;BME280;34927;37.302;-121.982;2023-04-08T04:17:07;101087.0;;;23.19;36.18
48530;BME280;34927;37.302;-121.982;2023-04-08T04:18:12;101092.0;;;23.14;36.12
48530;BME280;34927;37.302;-121.982;2023-04-08T04:19:17;101094.0;;;23.09;36.17
48530;BME280;34927;37.302;-121.982;2023-04-08T04:20:22;101092.0;;;23.20;35.99
48530;BME280;34927;37.302;-121.982;2023-04-08T04:21:26;101096.0;;;23.03;36.31
48530;BME280;34927;37.302;-121.982;2023-04-08T04:22:31;101097.0;;;23.09;36.11
48530;BME280;34927;37.302;-121.982;2023-04-08T04:23:37;101102.0;;;23.13;36.17
48530;BME280;34927;37.302;-121.982;2023-04-08T04:24:46;101103.0;;;23.14;36.07
48530;BME280;34927;37.302;-121.982;2023-04-08T04:25:52;101108.0;;;23.21;35.91
48530;BME280;34927;37.302;-121.982;2023-04-08T04:26:57;101109.0;;;23.15;35.96
48530;BME280;34927;37.302;-121.982;2023-04-08T04:28:02;101112.0;;;22.92;36.68
48530;BME280;34927;37.302;-121.982;2023-04-08T04:29:06;101114.0;;;23.02;36.55
48530;BME280;34927;37.302;-121.982;2023-04-08T04:30:12;101120.0;;;22.99;36.76
48530;BME280;34927;37.302;-121.982;2023-04-08T04:31:19;101123.0;;;22.97;36.96
48530;BME280;34927;37.302;-121.982;2023-04-08T04:32:22;101123.0;;;22.91;36.99
48530;BME280;34927;37.302;-121.982;2023-04-08T04:33:26;101122.0;;;23.02;36.55
48530;BME280;34927;37.302;-121.982;2023-04-08T04:34:32;101121.0;;;23.11;36.45
48530;BME280;34927;37.302;-121.982;2023-04-08T04:35:38;101124.0;;;23.31;36.17
48530;BME280;34927;37.302;-121.982;2023-04-08T04:36:42;101124.0;;;23.56;35.70
48530;BME280;34927;37.302;-121.982;2023-04-08T04:37:47;101127.0;;;23.82;35.19
48530;BME280;34927;37.302;-121.982;2023-04-08T04:38:51;101129.0;;;24.04;34.69
48530;BME280;34927;37.302;-121.982;2023-04-08T04:39:56;101133.0;;;24.09;34.46
48530;BME280;34927;37.302;-121.982;2023-04-08T04:41:02;101135.0;;;24.11;34.19
48530;BME280;34927;37.302;-121.982;2023-04-08T04:42:06;101138.0;;;24.11;34.23
48530;BME280;34927;37.302;-121.982;2023-04-08T04:43:12;101134.0;;;23.92;34.58
48530;BME280;34927;37.302;-121.982;2023-04-08T04:44:17;101135.0;;;23.65;34.91
48530;BME280;34927;37.302;-121.982;2023-04-08T04:45:21;101137.0;;;23.58;35.03
48530;BME280;34927;37.302;-121.982;2023-04-08T04:46:26;101138.0;;;23.76;34.74
48530;BME280;34927;37.302;-121.982;2023-04-08T04:47:32;101141.0;;;23.61;35.17
48530;BME280;34927;37.302;-121.982;2023-04-08T04:48:37;101142.0;;;23.42;35.93
48530;BME280;34927;37.302;-121.982;2023-04-08T04:49:41;101140.0;;;23.36;35.60
48530;BME280;34927;37.302;-121.982;2023-04-08T04:50:54;101140.0;;;23.31;35.65
48530;BME280;34927;37.302;-121.982;2023-04-08T04:51:57;101140.0;;;23.21;35.72
48530;BME280;34927;37.302;-121.982;2023-04-08T04:53:01;101137.0;;;23.20;35.78
48530;BME280;34927;37.302;-121.982;2023-04-08T04:54:07;101138.0;;;23.14;35.81
48530;BME280;34927;37.302;-121.982;2023-04-08T04:55:12;101139.0;;;23.16;35.72
48530;BME280;34927;37.302;-121.982;2023-04-08T04:56:17;101146.0;;;23.08;35.91
48530;BME280;34927;37.302;-121.982;2023-04-08T04:57:22;101146.0;;;23.13;35.81
48530;BME280;34927;37.302;-121.982;2023-04-08T04:58:27;101149.0;;;22.94;36.22
48530;BME280;34927;37.302;-121.982;2023-04-08T04:59:32;101152.0;;;23.09;36.04
48530;BME280;34927;37.302;-121.982;2023-04-08T05:00:37;101152.0;;;23.04;35.94
48530;BME280;34927;37.302;-121.982;2023-04-08T05:01:42;101156.0;;;22.97;36.14
48530;BME280;34927;37.302;-121.982;2023-04-08T05:02:47;101155.0;;;23.00;35.97
48530;BME280;34927;37.302;-121.982;2023-04-08T05:03:52;101150.0;;;23.28;35.55
48530;BME280;34927;37.302;-121.982;2023-04-08T05:04:58;101155.0;;;22.84;36.60
48530;BME280;34927;37.302;-121.982;2023-04-08T05:06:02;101155.0;;;22.76;36.87
48530;BME280;34927;37.302;-121.982;2023-04-08T05:07:06;101155.0;;;22.92;36.64
48530;BME280;34927;37.302;-121.982;2023-04-08T05:08:11;101157.0;;;23.18;36.46
48530;BME280;34927;37.302;-121.982;2023-04-08T05:09:16;101155.0;;;23.46;36.14
48530;BME280;34927;37.302;-121.982;2023-04-08T05:10:21;101149.0;;;23.73;35.67
48530;BME280;34927;37.302;-121.982;2023-04-08T05:11:26;101152.0;;;24.10;35.18
48530;BME280;34927;37.302;-121.982;2023-04-08T05:12:32;101153.0;;;24.30;34.56
48530;BME280;34927;37.302;-121.982;2023-04-08T05:13:37;101158.0;;;24.35;34.40
48530;BME280;34927;37.302;-121.982;2023-04-08T05:14:41;101161.0;;;24.33;34.31
48530;BME280;34927;37.302;-121.982;2023-04-08T05:15:46;101165.0;;;24.33;34.61
48530;BME280;34927;37.302;-121.982;2023-04-08T05:16:51;101161.0;;;24.21;35.19
48530;BME280;34927;37.302;-121.982;2023-04-08T05:17:57;101164.0;;;24.22;35.18
48530;BME280;34927;37.302;-121.982;2023-04-08T05:19:01;101162.0;;;23.93;35.64
48530;BME280;34927;37.302;-121.982;2023-04-08T05:20:07;101163.0;;;23.90;35.89
48530;BME280;34927;37.302;-121.982;2023-04-08T05:21:11;101162.0;;;23.94;35.48
48530;BME280;34927;37.302;-121.982;2023-04-08T05:22:17;101165.0;;;23.76;35.59
48530;BME280;34927;37.302;-121.982;2023-04-08T05:23:21;101166.0;;;23.90;35.38
48530;BME280;34927;37.302;-121.982;2023-04-08T05:24:26;101166.0;;;23.78;35.71
48530;BME280;34927;37.302;-121.982;2023-04-08T05:25:31;101167.0;;;23.64;35.92
48530;BME280;34927;37.302;-121.982;2023-04-08T05:26:37;101168.0;;;23.50;36.18
48530;BME280;34927;37.302;-121.982;2023-04-08T05:27:42;101167.0;;;23.63;35.88
48530;BME280;34927;37.302;-121.982;2023-04-08T05:28:47;101166.0;;;23.49;36.21
48530;BME280;34927;37.302;-121.982;2023-04-08T05:29:51;101170.0;;;23.50;35.99
48530;BME280;34927;37.302;-121.982;2023-04-08T05:30:56;101175.0;;;23.61;35.80
48530;BME280;34927;37.302;-121.982;2023-04-08T05:32:02;101177.0;;;23.60;35.81
48530;BME280;34927;37.302;-121.982;2023-04-08T05:33:07;101178.0;;;23.62;35.90
48530;BME280;34927;37.302;-121.982;2023-04-08T05:34:11;101175.0;;;23.52;35.93